createdAt,value
2023-02-26T00:02:13.284Z,99970.00
2023-02-26T00:04:43.680Z,99969.00
2023-02-26T00:07:12.980Z,99972.00
2023-02-26T00:09:42.217Z,99968.00
2023-02-26T00:12:14.400Z,99975.00
2023-02-26T00:14:44.332Z,99974.00
2023-02-26T00:17:42.419Z,99976.00
2023-02-26T00:20:13.908Z,99969.00
2023-02-26T00:22:43.751Z,99985.00
2023-02-26T00:25:13.352Z,99988.00
2023-02-26T00:27:43.174Z,99991.00
2023-02-26T00:30:13.842Z,99996.00
2023-02-26T00:32:43.927Z,99991.00
2023-02-26T00:35:17.718Z,99995.00
2023-02-26T00:38:13.563Z,100005.00
2023-02-26T00:40:51.257Z,100010.00
2023-02-26T00:43:29.483Z,100013.00
2023-02-26T00:46:21.039Z,100009.00
2023-02-26T00:49:12.795Z,100014.00
2023-02-26T00:52:00.177Z,100027.00
2023-02-26T00:54:32.500Z,100026.00
2023-02-26T00:57:05.221Z,100032.00
2023-02-26T00:59:34.558Z,100030.00
2023-02-26T01:02:03.672Z,100030.00
2023-02-26T01:04:39.452Z,100034.00
2023-02-26T01:07:11.670Z,100041.00
2023-02-26T01:09:43.633Z,100040.00
2023-02-26T01:12:18.418Z,100050.00
2023-02-26T01:14:48.458Z,100045.00
2023-02-26T01:17:26.284Z,100044.00
2023-02-26T01:20:11.151Z,100050.00
2023-02-26T01:23:10.832Z,100055.00
2023-02-26T01:26:15.110Z,100056.00
2023-02-26T01:28:44.793Z,100050.00
2023-02-26T01:32:01.608Z,100057.00
2023-02-26T01:34:56.647Z,100058.00
2023-02-26T01:38:15.409Z,100050.00
2023-02-26T01:41:11.235Z,100062.00
2023-02-26T01:44:12.107Z,100061.00
2023-02-26T01:47:26.712Z,100076.00
2023-02-26T01:49:56.537Z,100075.00
2023-02-26T01:52:51.941Z,100073.00
2023-02-26T01:55:28.605Z,100081.00
2023-02-26T01:58:02.425Z,100081.00
2023-02-26T02:00:33.312Z,100078.00
2023-02-26T02:03:03.412Z,100089.00
2023-02-26T02:05:49.317Z,100084.00
2023-02-26T02:08:20.033Z,100107.00
2023-02-26T02:10:52.271Z,100090.00
2023-02-26T02:13:39.213Z,100094.00
2023-02-26T02:16:31.103Z,100098.00
2023-02-26T02:19:15.116Z,100102.00
2023-02-26T02:22:16.011Z,100101.00
2023-02-26T02:25:15.360Z,100102.00
2023-02-26T02:27:59.566Z,100108.00
2023-02-26T02:30:57.826Z,100104.00
2023-02-26T02:33:46.063Z,100102.00
2023-02-26T02:36:46.233Z,100114.00
2023-02-26T02:39:51.425Z,100116.00
2023-02-26T02:42:48.376Z,100109.00
2023-02-26T02:45:28.719Z,100100.00
2023-02-26T02:48:28.155Z,100103.00
2023-02-26T02:51:18.824Z,100098.00
2023-02-26T02:53:58.945Z,100097.00
2023-02-26T02:56:53.178Z,100097.00
2023-02-26T02:59:49.418Z,100091.00
2023-02-26T03:03:05.774Z,100076.00
2023-02-26T03:05:35.039Z,100076.00
2023-02-26T03:08:21.929Z,100082.00
2023-02-26T03:10:51.296Z,100065.00
2023-02-26T03:13:26.181Z,100063.00
2023-02-26T03:16:27.890Z,100056.00
2023-02-26T03:19:19.726Z,100054.00
2023-02-26T03:22:48.541Z,100044.00
2023-02-26T03:25:48.554Z,100045.00
2023-02-26T03:28:34.713Z,100049.00
2023-02-26T03:31:27.163Z,100044.00
2023-02-26T03:34:10.205Z,100033.00
2023-02-26T03:37:03.789Z,100029.00
2023-02-26T03:39:53.973Z,100021.00
2023-02-26T03:42:52.517Z,100021.00
2023-02-26T03:45:30.430Z,100010.00
2023-02-26T03:48:04.198Z,100013.00
2023-02-26T03:50:49.661Z,100015.00
2023-02-26T03:53:30.945Z,100017.00
2023-02-26T03:56:12.943Z,100006.00
2023-02-26T03:58:42.183Z,99994.00
2023-02-26T04:01:21.476Z,99993.00
2023-02-26T04:04:03.307Z,99988.00
2023-02-26T04:06:34.379Z,99983.00
2023-02-26T04:09:07.170Z,99970.00
2023-02-26T04:11:38.412Z,99975.00
2023-02-26T04:14:07.610Z,99972.00
2023-02-26T04:16:36.727Z,99973.00
2023-02-26T04:19:06.017Z,99964.00
2023-02-26T04:21:35.492Z,99958.00
2023-02-26T04:24:06.009Z,99953.00
2023-02-26T04:26:35.134Z,99953.00
2023-02-26T04:29:04.301Z,99941.00
2023-02-26T04:31:33.601Z,99933.00
2023-02-26T04:34:02.812Z,99934.00
2023-02-26T04:36:32.525Z,99923.00
2023-02-26T04:39:02.392Z,99919.00
2023-02-26T04:41:31.546Z,99916.00
2023-02-26T04:44:00.773Z,99914.00
2023-02-26T04:46:30.552Z,99915.00
2023-02-26T04:48:59.916Z,99898.00
2023-02-26T04:51:29.185Z,99910.00
2023-02-26T04:53:59.207Z,99890.00
2023-02-26T04:56:29.376Z,99879.00
2023-02-26T04:58:58.488Z,99886.00
2023-02-26T05:01:28.098Z,99879.00
2023-02-26T05:03:57.361Z,99881.00
2023-02-26T05:06:27.114Z,99858.00
2023-02-26T05:08:56.455Z,99870.00
2023-02-26T05:11:25.765Z,99858.00
2023-02-26T05:13:55.318Z,99850.00
2023-02-26T05:16:24.765Z,99846.00
2023-02-26T05:18:54.087Z,99840.00
2023-02-26T05:21:25.877Z,99838.00
2023-02-26T05:23:55.386Z,99835.00
2023-02-26T05:26:25.339Z,99844.00
2023-02-26T05:28:54.850Z,99824.00
2023-02-26T05:31:24.272Z,99808.00
2023-02-26T05:33:53.496Z,99806.00
2023-02-26T05:36:22.821Z,99812.00
2023-02-26T05:38:52.141Z,99805.00
2023-02-26T05:41:21.445Z,99797.00
2023-02-26T05:43:50.798Z,99801.00
2023-02-26T05:46:19.977Z,99789.00
2023-02-26T05:48:49.796Z,99780.00
2023-02-26T05:51:19.038Z,99772.00
2023-02-26T05:53:48.429Z,99772.00
2023-02-26T05:56:18.001Z,99777.00
2023-02-26T05:58:47.559Z,99776.00
2023-02-26T06:01:17.200Z,99759.00
2023-02-26T06:03:47.027Z,99751.00
2023-02-26T06:06:19.426Z,99740.00
2023-02-26T06:08:49.550Z,99745.00
2023-02-26T06:11:20.838Z,99738.00
2023-02-26T06:13:50.705Z,99731.00
2023-02-26T06:16:21.455Z,99729.00
2023-02-26T06:18:51.325Z,99721.00
2023-02-26T06:21:21.106Z,99715.00
2023-02-26T06:23:50.289Z,99716.00
2023-02-26T06:26:20.298Z,99703.00
2023-02-26T06:28:50.739Z,99706.00
2023-02-26T06:31:20.209Z,99699.00
2023-02-26T06:33:49.446Z,99693.00
2023-02-26T06:36:18.648Z,99695.00
2023-02-26T06:38:47.977Z,99684.00
2023-02-26T06:41:17.165Z,99677.00
2023-02-26T06:43:46.790Z,99663.00
2023-02-26T06:46:16.878Z,99669.00
2023-02-26T06:48:46.279Z,99660.00
2023-02-26T06:51:15.548Z,99656.00
2023-02-26T06:53:44.710Z,99647.00
2023-02-26T06:56:13.885Z,99636.00
2023-02-26T06:58:43.232Z,99630.00
2023-02-26T07:01:12.465Z,99627.00
2023-02-26T07:03:41.702Z,99619.00
2023-02-26T07:06:38.288Z,99625.00
2023-02-26T07:09:03.816Z,99616.00
2023-02-26T07:11:33.165Z,99600.00
2023-02-26T07:14:02.531Z,99602.00
2023-02-26T07:16:31.739Z,99595.00
2023-02-26T07:19:01.005Z,99596.00
2023-02-26T07:21:30.231Z,99591.00
2023-02-26T07:23:59.425Z,99588.00
2023-02-26T07:26:28.790Z,99585.00
2023-02-26T07:28:58.032Z,99583.00
2023-02-26T07:31:27.362Z,99585.00
2023-02-26T07:33:56.829Z,99576.00
2023-02-26T07:36:26.476Z,99567.00
2023-02-26T07:38:55.922Z,99567.00
2023-02-26T07:41:26.230Z,99563.00
2023-02-26T07:43:55.511Z,99560.00
2023-02-26T07:46:25.357Z,99544.00
2023-02-26T07:48:54.848Z,99541.00
2023-02-26T07:51:24.513Z,99539.00
2023-02-26T07:53:54.056Z,99531.00
2023-02-26T07:56:23.543Z,99535.00
2023-02-26T07:58:52.871Z,99525.00
2023-02-26T08:01:22.088Z,99520.00
2023-02-26T08:03:51.401Z,99525.00
2023-02-26T08:06:20.607Z,99525.00
2023-02-26T08:08:49.838Z,99528.00
2023-02-26T08:11:19.117Z,99524.00
2023-02-26T08:13:48.633Z,99520.00
2023-02-26T08:16:17.893Z,99523.00
2023-02-26T08:18:47.276Z,99514.00
2023-02-26T08:21:16.520Z,99508.00
2023-02-26T08:23:45.786Z,99506.00
2023-02-26T08:26:18.019Z,99511.00
2023-02-26T08:28:48.496Z,99513.00
2023-02-26T08:31:18.776Z,99507.00
2023-02-26T08:33:48.340Z,99499.00
2023-02-26T08:36:17.528Z,99506.00
2023-02-26T08:38:46.695Z,99505.00
2023-02-26T08:41:15.997Z,99500.00
2023-02-26T08:43:45.640Z,99491.00
2023-02-26T08:46:15.234Z,99498.00
2023-02-26T08:48:44.422Z,99494.00
2023-02-26T08:51:13.709Z,99497.00
2023-02-26T08:53:42.844Z,99498.00
2023-02-26T08:56:12.007Z,99493.00
2023-02-26T08:58:41.355Z,99498.00
2023-02-26T09:01:11.529Z,99485.00
2023-02-26T09:03:40.724Z,99495.00
2023-02-26T09:06:09.933Z,99489.00
2023-02-26T09:08:39.158Z,99488.00
2023-02-26T09:11:08.270Z,99500.00
2023-02-26T09:13:37.354Z,99500.00
2023-02-26T09:16:07.210Z,99509.00
2023-02-26T09:18:36.569Z,99505.00
2023-02-26T09:21:06.074Z,99504.00
2023-02-26T09:23:35.264Z,99510.00
2023-02-26T09:26:04.982Z,99501.00
2023-02-26T09:28:34.126Z,99501.00
2023-02-26T09:31:03.690Z,99509.00
2023-02-26T09:33:32.870Z,99498.00
2023-02-26T09:36:05.873Z,99509.00
2023-02-26T09:38:36.858Z,99510.00
2023-02-26T09:41:16.303Z,99511.00
2023-02-26T09:44:16.939Z,99511.00
2023-02-26T09:47:09.852Z,99509.00
2023-02-26T09:50:20.884Z,99522.00
2023-02-26T09:53:32.449Z,99526.00
2023-02-26T09:56:14.945Z,99521.00
2023-02-26T09:58:46.566Z,99533.00
2023-02-26T10:01:28.025Z,99529.00
2023-02-26T10:04:19.423Z,99535.00
2023-02-26T10:07:28.436Z,99536.00
2023-02-26T10:10:45.993Z,99548.00
2023-02-26T10:13:57.112Z,99542.00
2023-02-26T10:16:34.615Z,99547.00
2023-02-26T10:19:21.490Z,99552.00
2023-02-26T10:22:06.322Z,99555.00
2023-02-26T10:24:55.737Z,99557.00
2023-02-26T10:28:02.721Z,99566.00
2023-02-26T10:30:59.686Z,99562.00
2023-02-26T10:34:26.340Z,99577.00
2023-02-26T10:37:05.385Z,99581.00
2023-02-26T10:40:12.450Z,99585.00
2023-02-26T10:42:48.876Z,99588.00
2023-02-26T10:46:08.884Z,99583.00
2023-02-26T10:49:22.531Z,99586.00
2023-02-26T10:51:53.976Z,99595.00
2023-02-26T10:55:43.173Z,99593.00
2023-02-26T10:58:19.085Z,99602.00
2023-02-26T11:00:54.712Z,99600.00
2023-02-26T11:03:38.348Z,99606.00
2023-02-26T11:06:08.723Z,99600.00
2023-02-26T11:08:45.059Z,99599.00
2023-02-26T11:11:38.630Z,99603.00
2023-02-26T11:14:09.570Z,99613.00
2023-02-26T11:16:52.184Z,99608.00
2023-02-26T11:19:33.254Z,99608.00
2023-02-26T11:22:05.186Z,99610.00
2023-02-26T11:24:53.508Z,99605.00
2023-02-26T11:27:37.806Z,99610.00
2023-02-26T11:30:32.129Z,99618.00
2023-02-26T11:33:19.421Z,99623.00
2023-02-26T11:35:50.059Z,99622.00
2023-02-26T11:38:26.619Z,99628.00
2023-02-26T11:40:59.632Z,99622.00
2023-02-26T11:43:46.117Z,99620.00
2023-02-26T11:46:16.786Z,99626.00
2023-02-26T11:48:50.447Z,99624.00
2023-02-26T11:51:28.279Z,99631.00
2023-02-26T11:54:03.723Z,99627.00
2023-02-26T11:56:45.670Z,99638.00
2023-02-26T11:59:25.505Z,99645.00
2023-02-26T12:01:55.779Z,99649.00
2023-02-26T12:04:29.035Z,99654.00
2023-02-26T12:06:58.763Z,99653.00
2023-02-26T12:09:29.088Z,99660.00
2023-02-26T12:12:15.481Z,99663.00
2023-02-26T12:15:10.537Z,99664.00
2023-02-26T12:18:20.484Z,99667.00
2023-02-26T12:21:03.574Z,99671.00
2023-02-26T12:24:05.865Z,99673.00
2023-02-26T12:27:04.987Z,99676.00
2023-02-26T12:29:46.057Z,99679.00
2023-02-26T12:32:45.307Z,99691.00
2023-02-26T12:36:07.277Z,99700.00
2023-02-26T12:38:42.199Z,99704.00
2023-02-26T12:41:46.632Z,99708.00
2023-02-26T12:45:05.711Z,99710.00
2023-02-26T12:48:00.631Z,99713.00
2023-02-26T12:51:16.444Z,99712.00
2023-02-26T12:54:17.606Z,99716.00
2023-02-26T12:57:06.644Z,99719.00
2023-02-26T13:00:33.553Z,99731.00
2023-02-26T13:03:57.504Z,99729.00
2023-02-26T13:07:02.769Z,99742.00
2023-02-26T13:10:21.352Z,99755.00
2023-02-26T13:13:34.492Z,99758.00
2023-02-26T13:16:49.696Z,99762.00
2023-02-26T13:19:30.204Z,99775.00
2023-02-26T13:22:18.288Z,99778.00
2023-02-26T13:25:24.770Z,99776.00
2023-02-26T13:28:01.098Z,99789.00
2023-02-26T13:30:48.513Z,99796.00
2023-02-26T13:33:28.276Z,99795.00
2023-02-26T13:36:03.180Z,99796.00
2023-02-26T13:39:14.919Z,99805.00
2023-02-26T13:42:08.446Z,99807.00
2023-02-26T13:44:37.830Z,99812.00
2023-02-26T13:47:43.456Z,99828.00
2023-02-26T13:50:48.625Z,99830.00
2023-02-26T13:53:32.333Z,99837.00
2023-02-26T13:56:37.462Z,99839.00
2023-02-26T13:59:20.152Z,99839.00
2023-02-26T14:01:55.171Z,99842.00
2023-02-26T14:04:27.839Z,99849.00
2023-02-26T14:07:09.501Z,99843.00
2023-02-26T14:09:49.679Z,99854.00
2023-02-26T14:12:18.844Z,99850.00
2023-02-26T14:15:15.250Z,99846.00
2023-02-26T14:18:04.633Z,99848.00
2023-02-26T14:20:40.237Z,99862.00
2023-02-26T14:23:35.355Z,99861.00
2023-02-26T14:26:19.787Z,99876.00
2023-02-26T14:29:08.339Z,99869.00
2023-02-26T14:31:56.584Z,99876.00
2023-02-26T14:34:32.053Z,99875.00
2023-02-26T14:37:13.166Z,99888.00
2023-02-26T14:40:24.104Z,99895.00
2023-02-26T14:43:06.193Z,99893.00
2023-02-26T14:45:43.448Z,99902.00
2023-02-26T14:48:26.349Z,99901.00
2023-02-26T14:51:20.080Z,99901.00
2023-02-26T14:54:33.381Z,99908.00
2023-02-26T14:57:43.417Z,99905.00
2023-02-26T15:00:45.344Z,99910.00
2023-02-26T15:03:51.573Z,99916.00
2023-02-26T15:07:00.798Z,99920.00
2023-02-26T15:10:17.925Z,99924.00
2023-02-26T15:13:14.217Z,99915.00
2023-02-26T15:16:27.789Z,99910.00
2023-02-26T15:19:38.195Z,99916.00
2023-02-26T15:22:58.120Z,99914.00
2023-02-26T15:25:41.504Z,99919.00
2023-02-26T15:28:39.732Z,99922.00
2023-02-26T15:31:16.691Z,99921.00
2023-02-26T15:33:48.801Z,99927.00
2023-02-26T15:36:25.555Z,99928.00
2023-02-26T15:39:10.248Z,99927.00
2023-02-26T15:41:44.188Z,99926.00
2023-02-26T15:44:24.781Z,99933.00
2023-02-26T15:47:11.135Z,99924.00
2023-02-26T15:49:49.446Z,99931.00
2023-02-26T15:52:24.004Z,99930.00
2023-02-26T15:55:04.206Z,99933.00
2023-02-26T15:57:37.763Z,99926.00
2023-02-26T16:00:27.544Z,99936.00
2023-02-26T16:02:59.892Z,99931.00
2023-02-26T16:05:30.719Z,99932.00
2023-02-26T16:08:00.100Z,99924.00
2023-02-26T16:10:35.587Z,99935.00
2023-02-26T16:13:06.492Z,99922.00
2023-02-26T16:15:40.711Z,99925.00
2023-02-26T16:18:18.387Z,99914.00
2023-02-26T16:20:51.847Z,99923.00
2023-02-26T16:23:46.425Z,99918.00
2023-02-26T16:26:37.034Z,99914.00
2023-02-26T16:29:22.749Z,99912.00
2023-02-26T16:32:00.106Z,99911.00
2023-02-26T16:34:56.653Z,99901.00
2023-02-26T16:37:32.702Z,99905.00
2023-02-26T16:40:18.685Z,99905.00
2023-02-26T16:43:07.382Z,99904.00
2023-02-26T16:45:39.290Z,99901.00
2023-02-26T16:48:56.208Z,99898.00
2023-02-26T16:51:31.373Z,99894.00
2023-02-26T16:54:28.991Z,99893.00
2023-02-26T16:57:14.954Z,99890.00
2023-02-26T16:59:47.188Z,99892.00
2023-02-26T17:02:23.277Z,99886.00
2023-02-26T17:05:01.441Z,99886.00
2023-02-26T17:07:37.587Z,99876.00
2023-02-26T17:10:24.128Z,99873.00
2023-02-26T17:13:02.672Z,99872.00
2023-02-26T17:15:40.025Z,99876.00
2023-02-26T17:18:09.564Z,99873.00
2023-02-26T17:20:40.064Z,99866.00
2023-02-26T17:23:10.673Z,99866.00
2023-02-26T17:25:53.429Z,99862.00
2023-02-26T17:28:36.452Z,99868.00
2023-02-26T17:31:06.782Z,99853.00
2023-02-26T17:33:38.141Z,99862.00
2023-02-26T17:36:08.472Z,99857.00
2023-02-26T17:38:37.665Z,99854.00
2023-02-26T17:41:06.893Z,99855.00
2023-02-26T17:43:36.255Z,99856.00
2023-02-26T17:46:06.718Z,99850.00
2023-02-26T17:48:36.537Z,99847.00
2023-02-26T17:51:06.103Z,99843.00
2023-02-26T17:53:41.803Z,99844.00
2023-02-26T17:56:21.734Z,99843.00
2023-02-26T17:58:52.862Z,99845.00
2023-02-26T18:01:25.041Z,99845.00
2023-02-26T18:03:55.698Z,99839.00
2023-02-26T18:06:26.789Z,99834.00
2023-02-26T18:08:56.183Z,99835.00
2023-02-26T18:11:27.008Z,99827.00
2023-02-26T18:13:56.435Z,99823.00
2023-02-26T18:16:34.255Z,99813.00
2023-02-26T18:19:03.992Z,99822.00
2023-02-26T18:21:34.236Z,99811.00
2023-02-26T18:24:03.943Z,99808.00
2023-02-26T18:26:34.822Z,99806.00
2023-02-26T18:29:04.093Z,99801.00
2023-02-26T18:31:36.766Z,99792.00
2023-02-26T18:34:07.380Z,99794.00
2023-02-26T18:36:38.608Z,99791.00
2023-02-26T18:39:14.580Z,99783.00
2023-02-26T18:41:43.876Z,99788.00
2023-02-26T18:44:13.256Z,99793.00
2023-02-26T18:46:43.689Z,99779.00
2023-02-26T18:49:23.320Z,99779.00
2023-02-26T18:51:52.849Z,99774.00
2023-02-26T18:54:22.212Z,99761.00
2023-02-26T18:56:51.366Z,99763.00
2023-02-26T18:59:20.691Z,99766.00
2023-02-26T19:01:50.190Z,99763.00
2023-02-26T19:04:19.323Z,99766.00
2023-02-26T19:06:48.655Z,99764.00
2023-02-26T19:09:17.773Z,99760.00
2023-02-26T19:11:46.955Z,99760.00
2023-02-26T19:14:16.152Z,99752.00
2023-02-26T19:16:45.303Z,99747.00
2023-02-26T19:19:15.043Z,99744.00
2023-02-26T19:21:44.273Z,99744.00
2023-02-26T19:24:15.120Z,99746.00
2023-02-26T19:26:45.446Z,99743.00
2023-02-26T19:29:20.488Z,99742.00
2023-02-26T19:31:49.836Z,99737.00
2023-02-26T19:34:19.162Z,99737.00
2023-02-26T19:36:51.389Z,99738.00
2023-02-26T19:39:21.039Z,99746.00
2023-02-26T19:41:55.032Z,99738.00
2023-02-26T19:44:28.423Z,99739.00
2023-02-26T19:46:57.669Z,99740.00
2023-02-26T19:49:27.497Z,99735.00
2023-02-26T19:51:56.660Z,99732.00
2023-02-26T19:54:26.103Z,99734.00
2023-02-26T19:56:55.328Z,99737.00
2023-02-26T19:59:24.495Z,99735.00
2023-02-26T20:01:53.703Z,99737.00
2023-02-26T20:04:22.816Z,99738.00
2023-02-26T20:06:52.135Z,99730.00
2023-02-26T20:09:21.342Z,99726.00
2023-02-26T20:11:51.387Z,99723.00
2023-02-26T20:14:20.529Z,99731.00
2023-02-26T20:16:49.706Z,99720.00
2023-02-26T20:19:19.550Z,99717.00
2023-02-26T20:21:49.778Z,99715.00
2023-02-26T20:24:20.950Z,99715.00
2023-02-26T20:26:50.144Z,99714.00
2023-02-26T20:29:19.599Z,99709.00
2023-02-26T20:31:50.887Z,99721.00
2023-02-26T20:34:21.213Z,99719.00
2023-02-26T20:36:51.764Z,99715.00
2023-02-26T20:39:22.789Z,99716.00
2023-02-26T20:41:51.932Z,99712.00
2023-02-26T20:44:21.027Z,99712.00
2023-02-26T20:46:50.358Z,99704.00
2023-02-26T20:49:20.693Z,99710.00
2023-02-26T20:51:51.466Z,99707.00
2023-02-26T20:54:23.841Z,99702.00
2023-02-26T20:56:53.262Z,99711.00
2023-02-26T20:59:22.778Z,99705.00
2023-02-26T21:01:53.012Z,99707.00
2023-02-26T21:04:22.426Z,99719.00
2023-02-26T21:06:51.667Z,99714.00
2023-02-26T21:09:20.817Z,99713.00
2023-02-26T21:11:49.964Z,99723.00
2023-02-26T21:14:19.139Z,99722.00
2023-02-26T21:16:48.335Z,99722.00
2023-02-26T21:19:17.520Z,99711.00
2023-02-26T21:21:46.629Z,99718.00
2023-02-26T21:24:15.760Z,99720.00
2023-02-26T21:26:44.939Z,99716.00
2023-02-26T21:29:14.033Z,99711.00
2023-02-26T21:31:43.249Z,99719.00
2023-02-26T21:34:32.747Z,99719.00
2023-02-26T21:37:11.234Z,99717.00
2023-02-26T21:39:40.564Z,99717.00
2023-02-26T21:42:13.436Z,99722.00
2023-02-26T21:44:42.828Z,99722.00
2023-02-26T21:47:13.545Z,99725.00
2023-02-26T21:49:42.702Z,99727.00
2023-02-26T21:52:13.582Z,99725.00
2023-02-26T21:54:42.758Z,99722.00
2023-02-26T21:57:12.023Z,99724.00
2023-02-26T21:59:41.207Z,99730.00
2023-02-26T22:02:12.858Z,99726.00
2023-02-26T22:04:43.065Z,99735.00
2023-02-26T22:07:12.228Z,99736.00
2023-02-26T22:09:41.403Z,99736.00
2023-02-26T22:12:10.512Z,99730.00
2023-02-26T22:14:39.715Z,99737.00
2023-02-26T22:17:08.986Z,99739.00
2023-02-26T22:19:38.414Z,99743.00
2023-02-26T22:22:07.593Z,99744.00
2023-02-26T22:24:37.587Z,99752.00
2023-02-26T22:27:06.682Z,99747.00
2023-02-26T22:29:35.870Z,99762.00
2023-02-26T22:32:05.106Z,99755.00
2023-02-26T22:34:35.255Z,99758.00
2023-02-26T22:37:04.974Z,99769.00
2023-02-26T22:39:34.240Z,99765.00
2023-02-26T22:42:03.639Z,99771.00
2023-02-26T22:44:32.795Z,99775.00
2023-02-26T22:47:02.717Z,99772.00
2023-02-26T22:49:31.915Z,99777.00
2023-02-26T22:52:01.091Z,99781.00
2023-02-26T22:54:30.392Z,99786.00
2023-02-26T22:56:59.592Z,99790.00
2023-02-26T22:59:28.757Z,99778.00
2023-02-26T23:01:57.955Z,99786.00
2023-02-26T23:04:27.432Z,99786.00
2023-02-26T23:06:56.606Z,99778.00
2023-02-26T23:09:25.880Z,99786.00
2023-02-26T23:11:55.251Z,99791.00
2023-02-26T23:14:25.196Z,99803.00
2023-02-26T23:16:54.693Z,99797.00
2023-02-26T23:19:23.889Z,99790.00
2023-02-26T23:21:53.418Z,99791.00
2023-02-26T23:24:22.609Z,99803.00
2023-02-26T23:26:52.137Z,99803.00
2023-02-26T23:29:21.512Z,99811.00
2023-02-26T23:31:50.863Z,99813.00
2023-02-26T23:34:20.431Z,99824.00
2023-02-26T23:36:49.646Z,99822.00
2023-02-26T23:39:18.948Z,99829.00
2023-02-26T23:41:48.191Z,99830.00
2023-02-26T23:44:17.356Z,99835.00
2023-02-26T23:46:46.851Z,99839.00
2023-02-26T23:49:18.668Z,99839.00
2023-02-26T23:51:48.611Z,99847.00
2023-02-26T23:54:17.840Z,99851.00
2023-02-26T23:56:47.518Z,99847.00
2023-02-26T23:59:18.869Z,99851.00
